createdAt,value
2018-07-25T00:00:21.104Z,101131.77
2018-07-25T00:02:50.447Z,101131.42
2018-07-25T00:05:19.970Z,101130.16
2018-07-25T00:07:50.051Z,101126.52
2018-07-25T00:10:20.220Z,101126.98
2018-07-25T00:12:50.237Z,101127.95
2018-07-25T00:15:19.727Z,101133.23
2018-07-25T00:17:49.203Z,101125.55
2018-07-25T00:20:19.625Z,101131.45
2018-07-25T00:22:49.177Z,101134.44
2018-07-25T00:25:18.555Z,101132.59
2018-07-25T00:27:48.528Z,101135.13
2018-07-25T00:30:17.973Z,101131.36
2018-07-25T00:32:47.366Z,101136.50
2018-07-25T00:35:16.773Z,101138.54
2018-07-25T00:37:46.221Z,101133.89
2018-07-25T00:40:15.735Z,101132.53
2018-07-25T00:42:45.131Z,101136.41
2018-07-25T00:45:14.524Z,101132.92
2018-07-25T00:47:43.902Z,101137.20
2018-07-25T00:50:13.327Z,101133.73
2018-07-25T00:52:42.747Z,101133.39
2018-07-25T00:55:12.389Z,101131.95
2018-07-25T00:57:41.793Z,101132.34
2018-07-25T01:00:11.536Z,101139.90
2018-07-25T01:02:40.946Z,101134.14
2018-07-25T01:05:10.333Z,101136.28
2018-07-25T01:07:39.749Z,101131.86
2018-07-25T01:10:09.266Z,101133.80
2018-07-25T01:12:38.829Z,101135.78
2018-07-25T01:15:10.158Z,101136.95
2018-07-25T01:17:39.388Z,101140.52
2018-07-25T01:20:09.166Z,101141.59
2018-07-25T01:22:38.646Z,101135.50
2018-07-25T01:25:08.151Z,101132.13
2018-07-25T01:27:37.553Z,101138.62
2018-07-25T01:30:07.870Z,101142.43
2018-07-25T01:32:37.297Z,101139.70
2018-07-25T01:35:07.853Z,101144.63
2018-07-25T01:37:37.214Z,101139.73
2018-07-25T01:40:06.611Z,101149.72
2018-07-25T01:42:36.006Z,101141.63
2018-07-25T01:45:05.768Z,101141.61
2018-07-25T01:47:35.145Z,101145.17
2018-07-25T01:50:04.713Z,101146.19
2018-07-25T01:52:34.145Z,101149.16
2018-07-25T01:55:03.675Z,101149.64
2018-07-25T01:57:33.906Z,101151.44
2018-07-25T02:00:03.382Z,101148.49
2018-07-25T02:02:33.525Z,101149.73
2018-07-25T02:05:02.949Z,101153.80
2018-07-25T02:07:32.140Z,101149.03
2018-07-25T02:10:02.050Z,101153.55
2018-07-25T02:12:32.358Z,101155.23
2018-07-25T02:15:01.868Z,101150.51
2018-07-25T02:17:31.546Z,101157.69
2018-07-25T02:20:00.985Z,101156.07
2018-07-25T02:22:30.502Z,101156.99
2018-07-25T02:24:59.869Z,101158.17
2018-07-25T02:27:29.394Z,101160.83
2018-07-25T02:29:58.926Z,101160.55
2018-07-25T02:32:28.292Z,101160.05
2018-07-25T02:34:57.713Z,101166.91
2018-07-25T02:37:27.099Z,101163.70
2018-07-25T02:39:56.498Z,101169.52
2018-07-25T02:42:25.746Z,101163.88
2018-07-25T02:44:55.061Z,101172.89
2018-07-25T02:47:24.578Z,101178.89
2018-07-25T02:49:53.930Z,101170.08
2018-07-25T02:52:23.536Z,101179.45
2018-07-25T02:54:52.958Z,101178.95
2018-07-25T02:57:22.448Z,101178.17
2018-07-25T02:59:52.670Z,101180.57
2018-07-25T03:02:23.457Z,101179.81
2018-07-25T03:04:52.823Z,101174.80
2018-07-25T03:07:22.807Z,101179.55
2018-07-25T03:09:52.210Z,101175.45
2018-07-25T03:12:21.867Z,101175.45
2018-07-25T03:14:51.215Z,101181.73
2018-07-25T03:17:20.637Z,101171.89
2018-07-25T03:19:49.994Z,101183.66
2018-07-25T03:22:19.354Z,101177.94
2018-07-25T03:24:48.746Z,101175.63
2018-07-25T03:27:18.830Z,101167.95
2018-07-25T03:29:48.276Z,101175.12
2018-07-25T03:32:17.726Z,101179.25
2018-07-25T03:34:48.086Z,101146.73
2018-07-25T03:37:17.633Z,101176.49
2018-07-25T03:39:47.061Z,101174.69
2018-07-25T03:42:16.411Z,101178.19
2018-07-25T03:44:46.705Z,101176.39
2018-07-25T03:47:16.033Z,101179.75
2018-07-25T03:49:45.422Z,101184.80
2018-07-25T03:52:15.114Z,101189.38
2018-07-25T03:54:44.458Z,101195.30
2018-07-25T03:57:13.873Z,101193.08
2018-07-25T03:59:43.281Z,101190.36
2018-07-25T04:02:12.654Z,101189.91
2018-07-25T04:04:42.065Z,101190.05
2018-07-25T04:07:11.529Z,101183.21
2018-07-25T04:09:41.016Z,101186.44
2018-07-25T04:12:10.385Z,101188.63
2018-07-25T04:14:39.805Z,101186.31
2018-07-25T04:17:09.213Z,101193.55
2018-07-25T04:19:38.591Z,101192.57
2018-07-25T04:22:08.025Z,101195.38
2018-07-25T04:24:37.574Z,101194.43
2018-07-25T04:27:06.966Z,101195.27
2018-07-25T04:29:36.510Z,101197.06
2018-07-25T04:32:05.935Z,101197.02
2018-07-25T04:34:35.354Z,101196.64
2018-07-25T04:37:04.774Z,101192.52
2018-07-25T04:39:34.137Z,101194.30
2018-07-25T04:42:03.454Z,101194.58
2018-07-25T04:44:32.887Z,101199.13
2018-07-25T04:47:02.277Z,101200.70
2018-07-25T04:49:31.865Z,101196.66
2018-07-25T04:52:01.267Z,101202.63
2018-07-25T04:54:30.678Z,101203.72
2018-07-25T04:57:00.131Z,101205.66
2018-07-25T04:59:29.798Z,101211.33
2018-07-25T05:01:59.189Z,101214.55
2018-07-25T05:04:28.594Z,101216.05
2018-07-25T05:06:58.023Z,101214.59
2018-07-25T05:09:27.389Z,101214.73
2018-07-25T05:11:56.797Z,101218.35
2018-07-25T05:14:26.164Z,101214.88
2018-07-25T05:16:55.538Z,101214.58
2018-07-25T05:19:24.909Z,101219.94
2018-07-25T05:21:54.600Z,101220.63
2018-07-25T05:24:24.055Z,101216.11
2018-07-25T05:26:53.878Z,101218.95
2018-07-25T05:29:23.497Z,101224.00
2018-07-25T05:31:52.898Z,101224.94
2018-07-25T05:34:22.251Z,101220.84
2018-07-25T05:36:51.698Z,101217.63
2018-07-25T05:39:21.045Z,101222.25
2018-07-25T05:41:50.515Z,101224.00
2018-07-25T05:44:19.957Z,101228.17
2018-07-25T05:46:49.370Z,101219.81
2018-07-25T05:49:19.186Z,101224.13
2018-07-25T05:51:48.849Z,101226.22
2018-07-25T05:54:18.458Z,101227.91
2018-07-25T05:56:47.889Z,101230.94
2018-07-25T05:59:17.221Z,101224.27
2018-07-25T06:01:46.596Z,101224.81
2018-07-25T06:04:16.100Z,101227.20
2018-07-25T06:06:45.485Z,101228.12
2018-07-25T06:09:14.686Z,101232.84
2018-07-25T06:11:44.151Z,101237.02
2018-07-25T06:14:13.567Z,101233.48
2018-07-25T06:16:42.953Z,101235.22
2018-07-25T06:19:12.305Z,101238.48
2018-07-25T06:21:41.800Z,101239.56
2018-07-25T06:24:11.206Z,101243.25
2018-07-25T06:26:40.636Z,101242.59
2018-07-25T06:29:10.091Z,101238.36
2018-07-25T06:31:41.086Z,101235.38
2018-07-25T06:34:10.525Z,101238.37
2018-07-25T06:36:39.881Z,101243.67
2018-07-25T06:39:12.131Z,101238.56
2018-07-25T06:41:41.757Z,101240.39
2018-07-25T06:44:11.350Z,101239.28
2018-07-25T06:46:40.706Z,101236.60
2018-07-25T06:49:10.157Z,101233.07
2018-07-25T06:51:39.790Z,101234.30
2018-07-25T06:54:09.235Z,101239.11
2018-07-25T06:56:38.693Z,101240.73
2018-07-25T06:59:08.193Z,101240.45
2018-07-25T07:01:37.674Z,101236.77
2018-07-25T07:04:07.199Z,101240.45
2018-07-25T07:06:36.651Z,101244.86
2018-07-25T07:09:09.184Z,101241.40
2018-07-25T07:11:38.586Z,101244.85
2018-07-25T07:14:07.999Z,101246.94
2018-07-25T07:16:37.068Z,101248.69
2018-07-25T07:19:06.781Z,101250.59
2018-07-25T07:21:36.161Z,101253.17
2018-07-25T07:24:05.587Z,101260.02
2018-07-25T07:26:34.986Z,101257.58
2018-07-25T07:29:04.405Z,101261.11
2018-07-25T07:31:33.815Z,101257.02
2018-07-25T07:34:03.207Z,101257.30
2018-07-25T07:36:32.597Z,101260.42
2018-07-25T07:39:01.996Z,101259.34
2018-07-25T07:41:31.446Z,101264.77
2018-07-25T07:44:00.720Z,101261.43
2018-07-25T07:46:30.130Z,101264.28
2018-07-25T07:48:59.558Z,101253.47
2018-07-25T07:51:28.902Z,101257.59
2018-07-25T07:53:58.560Z,101259.75
2018-07-25T07:56:27.940Z,101258.49
2018-07-25T07:58:57.973Z,101259.22
2018-07-25T08:01:27.334Z,101264.95
2018-07-25T08:03:56.866Z,101267.41
2018-07-25T08:06:26.415Z,101263.25
2018-07-25T08:08:55.853Z,101263.30
2018-07-25T08:11:25.781Z,101263.91
2018-07-25T08:13:55.214Z,101266.18
2018-07-25T08:16:24.609Z,101264.84
2018-07-25T08:18:53.974Z,101268.06
2018-07-25T08:21:23.415Z,101266.46
2018-07-25T08:23:52.839Z,101266.18
2018-07-25T08:26:22.171Z,101270.23
2018-07-25T08:28:51.538Z,101270.15
2018-07-25T08:31:20.942Z,101268.95
2018-07-25T08:33:50.334Z,101276.05
2018-07-25T08:36:19.913Z,101280.05
2018-07-25T08:38:49.286Z,101270.89
2018-07-25T08:41:18.758Z,101267.33
2018-07-25T08:43:48.110Z,101273.84
2018-07-25T08:46:17.517Z,101270.78
2018-07-25T08:48:47.038Z,101268.86
2018-07-25T08:51:16.577Z,101278.49
2018-07-25T08:53:45.975Z,101276.56
2018-07-25T08:56:15.358Z,101274.60
2018-07-25T08:58:44.777Z,101269.08
2018-07-25T09:01:14.220Z,101264.17
2018-07-25T09:03:43.644Z,101264.13
2018-07-25T09:06:13.006Z,101264.63
2018-07-25T09:08:42.417Z,101262.77
2018-07-25T09:11:11.778Z,101262.91
2018-07-25T09:13:41.082Z,101263.06
2018-07-25T09:16:11.620Z,101259.75
2018-07-25T09:18:41.026Z,101256.23
2018-07-25T09:21:11.444Z,101255.70
2018-07-25T09:23:40.919Z,101260.36
2018-07-25T09:26:10.281Z,101261.30
2018-07-25T09:28:40.306Z,101262.10
2018-07-25T09:31:10.714Z,101255.67
2018-07-25T09:33:40.155Z,101258.81
2018-07-25T09:36:10.843Z,101259.91
2018-07-25T09:38:40.346Z,101257.34
2018-07-25T09:41:09.766Z,101262.38
2018-07-25T09:43:39.694Z,101266.22
2018-07-25T09:46:09.188Z,101259.84
2018-07-25T09:48:38.575Z,101257.44
2018-07-25T09:51:08.250Z,101261.92
2018-07-25T09:53:37.695Z,101255.89
2018-07-25T09:56:08.722Z,101250.59
2018-07-25T09:58:38.161Z,101258.25
2018-07-25T10:01:08.318Z,101252.36
2018-07-25T10:03:37.704Z,101254.03
2018-07-25T10:06:07.006Z,101250.85
2018-07-25T10:08:36.481Z,101254.75
2018-07-25T10:11:05.947Z,101248.14
2018-07-25T10:13:35.836Z,101251.86
2018-07-25T10:16:06.365Z,101246.95
2018-07-25T10:18:36.498Z,101244.62
2018-07-25T10:21:06.161Z,101247.85
2018-07-25T10:23:35.570Z,101247.98
2018-07-25T10:26:05.314Z,101248.95
2018-07-25T10:28:34.696Z,101251.00
2018-07-25T10:31:04.105Z,101245.92
2018-07-25T10:33:33.753Z,101239.84
2018-07-25T10:36:03.740Z,101235.00
2018-07-25T10:38:33.374Z,101239.78
2018-07-25T10:41:03.611Z,101231.82
2018-07-25T10:43:33.875Z,101235.91
2018-07-25T10:46:03.387Z,101235.47
2018-07-25T10:48:33.397Z,101232.43
2018-07-25T10:51:02.822Z,101234.88
2018-07-25T10:53:32.203Z,101234.76
2018-07-25T10:56:01.659Z,101239.09
2018-07-25T10:58:31.290Z,101236.98
2018-07-25T11:01:00.707Z,101225.91
2018-07-25T11:03:30.158Z,101226.96
2018-07-25T11:05:59.749Z,101226.07
2018-07-25T11:08:29.126Z,101230.19
2018-07-25T11:11:02.764Z,101231.80
2018-07-25T11:13:32.142Z,101228.48
2018-07-25T11:16:02.793Z,101225.19
2018-07-25T11:18:32.221Z,101223.66
2018-07-25T11:21:01.827Z,101227.62
2018-07-25T11:23:31.277Z,101222.68
2018-07-25T11:26:00.714Z,101219.71
2018-07-25T11:28:30.239Z,101218.77
2018-07-25T11:31:00.241Z,101216.79
2018-07-25T11:33:29.636Z,101216.95
2018-07-25T11:35:59.031Z,101220.70
2018-07-25T11:38:28.510Z,101213.13
2018-07-25T11:40:57.981Z,101210.55
2018-07-25T11:43:27.365Z,101210.87
2018-07-25T11:45:56.894Z,101213.49
2018-07-25T11:48:26.423Z,101211.23
2018-07-25T11:50:55.901Z,101204.88
2018-07-25T11:53:25.408Z,101205.95
2018-07-25T11:55:54.936Z,101204.09
2018-07-25T11:58:24.565Z,101202.45
2018-07-25T12:00:53.954Z,101200.69
2018-07-25T12:03:23.476Z,101204.09
2018-07-25T12:05:53.143Z,101201.22
2018-07-25T12:08:22.325Z,101197.06
2018-07-25T12:10:51.909Z,101191.30
2018-07-25T12:13:21.350Z,101183.30
2018-07-25T12:15:50.735Z,101186.34
2018-07-25T12:18:20.129Z,101184.89
2018-07-25T12:20:49.522Z,101188.52
2018-07-25T12:23:18.938Z,101187.06
2018-07-25T12:25:48.364Z,101186.45
2018-07-25T12:28:17.825Z,101183.85
2018-07-25T12:30:47.292Z,101182.14
2018-07-25T12:33:16.754Z,101187.76
2018-07-25T12:35:46.376Z,101178.48
2018-07-25T12:38:15.817Z,101186.44
2018-07-25T12:40:45.174Z,101183.69
2018-07-25T12:43:14.554Z,101189.06
2018-07-25T12:45:43.909Z,101185.29
2018-07-25T12:48:13.311Z,101180.75
2018-07-25T12:50:42.910Z,101178.52
2018-07-25T12:53:12.382Z,101178.30
2018-07-25T12:55:41.722Z,101176.30
2018-07-25T12:58:11.126Z,101173.80
2018-07-25T13:00:40.501Z,101168.89
2018-07-25T13:03:09.942Z,101156.06
2018-07-25T13:05:39.324Z,101158.09
2018-07-25T13:08:09.214Z,101153.55
2018-07-25T13:10:38.595Z,101144.61
2018-07-25T13:13:08.065Z,101133.92
2018-07-25T13:15:37.474Z,101131.87
2018-07-25T13:18:07.111Z,101130.84
2018-07-25T13:20:36.720Z,101143.32
2018-07-25T13:23:06.246Z,101143.44
2018-07-25T13:25:35.678Z,101140.30
2018-07-25T13:28:05.157Z,101136.48
2018-07-25T13:30:34.538Z,101140.88
2018-07-25T13:33:04.025Z,101148.66
2018-07-25T13:35:33.563Z,101151.67
2018-07-25T13:38:02.957Z,101149.20
2018-07-25T13:40:32.502Z,101149.53
2018-07-25T13:43:02.086Z,101150.50
2018-07-25T13:45:31.559Z,101163.37
2018-07-25T13:48:00.866Z,101147.81
2018-07-25T13:50:30.233Z,101159.39
2018-07-25T13:53:00.096Z,101155.75
2018-07-25T13:55:30.299Z,101154.83
2018-07-25T13:57:59.730Z,101145.42
2018-07-25T14:00:29.281Z,101142.77
2018-07-25T14:02:58.678Z,101141.20
2018-07-25T14:05:28.782Z,101140.38
2018-07-25T14:07:58.195Z,101127.90
2018-07-25T14:10:27.538Z,101134.59
2018-07-25T14:12:57.171Z,101128.77
2018-07-25T14:15:26.667Z,101132.97
2018-07-25T14:17:56.244Z,101135.80
2018-07-25T14:20:25.783Z,101145.52
2018-07-25T14:22:55.374Z,101163.14
2018-07-25T14:25:25.107Z,101186.69
2018-07-25T14:27:54.479Z,101226.19
2018-07-25T14:30:24.139Z,101257.69
2018-07-25T14:32:53.386Z,101257.68
2018-07-25T14:35:22.762Z,101259.47
2018-07-25T14:37:52.189Z,101290.11
2018-07-25T14:40:21.690Z,101280.69
2018-07-25T14:42:50.979Z,101295.41
2018-07-25T14:45:20.426Z,101304.93
2018-07-25T14:47:49.815Z,101294.52
2018-07-25T14:50:19.398Z,101294.47
2018-07-25T14:52:48.814Z,101299.39
2018-07-25T14:55:18.181Z,101306.59
2018-07-25T14:57:47.584Z,101298.46
2018-07-25T15:00:17.991Z,101298.05
2018-07-25T15:02:47.575Z,101305.91
2018-07-25T15:05:16.895Z,101316.31
2018-07-25T15:07:46.329Z,101323.60
2018-07-25T15:10:15.767Z,101335.58
2018-07-25T15:12:50.443Z,101329.75
2018-07-25T15:15:20.050Z,101337.86
2018-07-25T15:17:49.740Z,101349.57
2018-07-25T15:20:20.237Z,101340.52
2018-07-25T15:22:50.676Z,101338.48
2018-07-25T15:25:20.763Z,101334.27
2018-07-25T15:27:51.659Z,101330.95
2018-07-25T15:30:21.201Z,101331.02
2018-07-25T15:32:50.746Z,101322.65
2018-07-25T15:35:20.223Z,101320.20
2018-07-25T15:37:49.795Z,101308.39
2018-07-25T15:40:19.275Z,101308.92
2018-07-25T15:42:48.775Z,101311.27
2018-07-25T15:45:18.189Z,101313.66
2018-07-25T15:47:47.569Z,101309.27
2018-07-25T15:50:17.039Z,101313.09
2018-07-25T15:52:46.477Z,101312.97
2018-07-25T15:55:15.907Z,101305.80
2018-07-25T15:57:45.377Z,101307.02
2018-07-25T16:00:14.778Z,101303.30
2018-07-25T16:02:44.206Z,101302.70
2018-07-25T16:05:14.798Z,101296.03
2018-07-25T16:07:44.275Z,101289.91
2018-07-25T16:10:14.041Z,101284.08
2018-07-25T16:12:43.442Z,101290.13
2018-07-25T16:15:12.867Z,101290.27
2018-07-25T16:17:43.217Z,101294.20
2018-07-25T16:20:12.830Z,101292.16
2018-07-25T16:22:42.333Z,101290.27
2018-07-25T16:25:11.891Z,101287.99
2018-07-25T16:27:41.377Z,101280.36
2018-07-25T16:30:10.769Z,101281.48
2018-07-25T16:32:40.383Z,101276.50
2018-07-25T16:35:09.722Z,101279.20
2018-07-25T16:37:39.690Z,101276.11
2018-07-25T16:40:09.066Z,101269.34
2018-07-25T16:42:38.498Z,101270.65
2018-07-25T16:45:08.115Z,101260.22
2018-07-25T16:47:37.594Z,101260.19
2018-07-25T16:50:07.190Z,101254.88
2018-07-25T16:52:36.622Z,101246.48
2018-07-25T16:55:06.091Z,101241.31
2018-07-25T16:57:35.511Z,101244.98
2018-07-25T17:00:05.983Z,101244.98
2018-07-25T17:02:35.473Z,101249.95
2018-07-25T17:05:05.394Z,101246.74
2018-07-25T17:07:34.793Z,101250.84
2018-07-25T17:10:04.291Z,101247.48
2018-07-25T17:12:33.590Z,101246.58
2018-07-25T17:15:02.963Z,101247.45
2018-07-25T17:17:32.381Z,101242.37
2018-07-25T17:20:01.758Z,101248.18
2018-07-25T17:24:59.554Z,101245.34
2018-07-25T17:27:29.135Z,101245.47
2018-07-25T17:29:58.457Z,101246.81
2018-07-25T17:32:29.137Z,101247.42
2018-07-25T17:34:58.612Z,101242.23
2018-07-25T17:37:27.985Z,101235.98
2018-07-25T17:39:57.747Z,101235.48
2018-07-25T17:42:27.253Z,101237.30
2018-07-25T17:44:56.905Z,101237.51
2018-07-25T17:47:26.384Z,101234.05
2018-07-25T17:49:55.838Z,101239.26
2018-07-25T17:52:25.605Z,101234.79
2018-07-25T17:54:55.059Z,101246.63
2018-07-25T17:57:24.579Z,101249.03
2018-07-25T17:59:53.942Z,101249.00
2018-07-25T18:02:23.427Z,101246.91
2018-07-25T18:04:52.810Z,101252.69
2018-07-25T18:07:22.031Z,101255.33
2018-07-25T18:09:51.434Z,101257.59
2018-07-25T18:12:21.040Z,101251.19
2018-07-25T18:14:50.420Z,101251.90
2018-07-25T18:17:20.157Z,101253.90
2018-07-25T18:19:49.584Z,101260.16
2018-07-25T18:22:19.036Z,101263.39
2018-07-25T18:24:48.558Z,101264.83
2018-07-25T18:27:18.170Z,101268.58
2018-07-25T18:29:47.681Z,101265.79
2018-07-25T18:32:17.097Z,101265.94
2018-07-25T18:34:46.590Z,101267.58
2018-07-25T18:37:16.106Z,101270.81
2018-07-25T18:39:45.569Z,101269.09
2018-07-25T18:42:15.083Z,101270.08
2018-07-25T18:44:44.473Z,101268.71
2018-07-25T18:47:13.968Z,101273.53
2018-07-25T18:49:43.411Z,101272.94
2018-07-25T18:52:12.525Z,101273.48
2018-07-25T18:54:41.978Z,101279.09
2018-07-25T18:57:11.489Z,101277.96
2018-07-25T18:59:40.922Z,101275.24
2018-07-25T19:02:10.444Z,101288.12
2018-07-25T19:04:39.928Z,101287.27
2018-07-25T19:07:09.321Z,101284.70
2018-07-25T19:09:38.729Z,101286.38
2018-07-25T19:12:08.748Z,101287.38
2018-07-25T19:14:43.374Z,101291.96
2018-07-25T19:17:12.918Z,101293.91
2018-07-25T19:19:42.210Z,101305.29
2018-07-25T19:22:11.617Z,101308.64
2018-07-25T19:24:41.096Z,101309.71
2018-07-25T19:27:10.740Z,101310.11
2018-07-25T19:29:39.939Z,101311.16
2018-07-25T19:32:09.396Z,101311.71
2018-07-25T19:34:38.953Z,101311.00
2018-07-25T19:37:08.062Z,101315.17
2018-07-25T19:39:38.604Z,101318.61
2018-07-25T19:42:09.431Z,101319.70
2018-07-25T19:44:38.910Z,101318.63
2018-07-25T19:47:08.381Z,101323.86
2018-07-25T19:49:37.808Z,101322.15
2018-07-25T19:52:07.237Z,101318.95
2018-07-25T19:54:36.768Z,101315.45
2018-07-25T19:57:06.121Z,101313.08
2018-07-25T19:59:35.585Z,101312.90
2018-07-25T20:02:04.939Z,101317.78
2018-07-25T20:04:34.381Z,101312.37
2018-07-25T20:07:04.244Z,101317.68
2018-07-25T20:09:33.600Z,101310.92
2018-07-25T20:12:03.111Z,101319.64
2018-07-25T20:14:37.727Z,101320.39
2018-07-25T20:17:07.204Z,101320.92
2018-07-25T20:19:36.638Z,101323.59
2018-07-25T20:22:06.071Z,101322.93
2018-07-25T20:24:36.474Z,101322.63
2018-07-25T20:27:06.011Z,101322.79
2018-07-25T20:29:35.484Z,101317.58
2018-07-25T20:32:05.530Z,101321.05
2018-07-25T20:34:34.933Z,101323.70
2018-07-25T20:37:04.334Z,101326.88
2018-07-25T20:39:33.499Z,101320.92
2018-07-25T20:42:02.974Z,101319.92
2018-07-25T20:44:32.368Z,101313.59
2018-07-25T20:47:01.793Z,101315.34
2018-07-25T20:49:31.282Z,101313.76
2018-07-25T20:52:00.773Z,101313.02
2018-07-25T20:54:30.303Z,101312.25
2018-07-25T20:56:59.699Z,101316.59
2018-07-25T20:59:29.046Z,101317.33
2018-07-25T21:01:58.498Z,101310.17
2018-07-25T21:04:27.871Z,101312.84
2018-07-25T21:06:57.329Z,101311.95
2018-07-25T21:09:26.851Z,101313.61
2018-07-25T21:11:56.070Z,101313.80
2018-07-25T21:14:25.718Z,101310.97
2018-07-25T21:16:55.157Z,101311.93
2018-07-25T21:19:24.517Z,101317.45
2018-07-25T21:21:54.061Z,101315.46
2018-07-25T21:24:23.689Z,101318.37
2018-07-25T21:26:52.761Z,101323.77
2018-07-25T21:29:22.663Z,101323.67
2018-07-25T21:31:52.347Z,101330.45
2018-07-25T21:34:21.521Z,101330.02
2018-07-25T21:36:51.014Z,101330.70
2018-07-25T21:39:20.454Z,101334.02
2018-07-25T21:41:49.920Z,101341.55
2018-07-25T21:44:19.839Z,101339.00
2018-07-25T21:46:49.000Z,101346.34
2018-07-25T21:49:18.412Z,101349.06
2018-07-25T21:51:48.650Z,101352.97
2018-07-25T21:54:18.128Z,101361.26
2018-07-25T21:56:47.487Z,101358.92
2018-07-25T21:59:16.943Z,101361.03
2018-07-25T22:01:46.481Z,101356.36
2018-07-25T22:04:15.999Z,101365.34
2018-07-25T22:06:45.448Z,101363.78
2018-07-25T22:09:15.050Z,101366.92
2018-07-25T22:11:44.511Z,101367.94
2018-07-25T22:14:13.693Z,101366.92
2018-07-25T22:16:43.129Z,101365.59
2018-07-25T22:19:12.503Z,101366.33
2018-07-25T22:21:42.053Z,101371.17
2018-07-25T22:24:11.474Z,101379.03
2018-07-25T22:26:40.638Z,101379.70
2018-07-25T22:29:10.078Z,101375.92
2018-07-25T22:31:39.385Z,101379.80
2018-07-25T22:34:08.817Z,101373.45
2018-07-25T22:36:38.246Z,101377.75
2018-07-25T22:39:10.283Z,101377.47
2018-07-25T22:41:39.730Z,101378.48
2018-07-25T22:44:09.177Z,101381.66
2018-07-25T22:46:38.686Z,101380.73
2018-07-25T22:49:08.578Z,101381.84
2018-07-25T22:51:38.106Z,101384.71
2018-07-25T22:54:07.498Z,101387.51
2018-07-25T22:56:36.927Z,101383.63
2018-07-25T22:59:06.975Z,101383.56
2018-07-25T23:01:37.003Z,101380.73
2018-07-25T23:04:06.491Z,101384.56
2018-07-25T23:06:35.949Z,101385.58
2018-07-25T23:09:09.115Z,101384.14
2018-07-25T23:11:38.557Z,101397.61
2018-07-25T23:14:08.136Z,101390.55
2018-07-25T23:16:37.618Z,101392.41
2018-07-25T23:19:07.637Z,101395.23
2018-07-25T23:21:37.165Z,101398.15
2018-07-25T23:24:06.626Z,101398.23
2018-07-25T23:26:36.014Z,101400.38
2018-07-25T23:29:05.406Z,101401.23
2018-07-25T23:31:34.771Z,101394.20
2018-07-25T23:34:04.336Z,101393.95
2018-07-25T23:36:33.851Z,101394.95
2018-07-25T23:39:03.493Z,101394.88
2018-07-25T23:41:33.860Z,101399.51
2018-07-25T23:44:03.298Z,101398.52
2018-07-25T23:46:32.636Z,101403.23
2018-07-25T23:49:02.092Z,101403.73
2018-07-25T23:51:31.513Z,101401.14
2018-07-25T23:54:00.916Z,101407.45
2018-07-25T23:56:30.566Z,101399.36
2018-07-25T23:59:00.787Z,101402.67
